Time;durP1;ratioP1;P1;durP2;ratioP2;P2;SDS_P1;SDS_P2;PMS_P1;PMS_P2;Temp;Humidity;BMP_temperature;BMP_pressure;BME280_temperature;BME280_humidity;BME280_pressure;Samples;Min_cycle;Max_cycle;Signal;HPM_P1;HPM_P2
2024/02/18 00:01:33;;;;;;;27.97;20.07;;;10.20;99.90;;;;;;5055727;28;20025;-72
2024/02/18 00:03:59;;;;;;;24.85;19.25;;;10.30;99.90;;;;;;5055572;28;20520;-72
2024/02/18 00:06:25;;;;;;;27.67;19.75;;;10.40;99.90;;;;;;5055370;28;20025;-72
2024/02/18 00:08:51;;;;;;;25.60;18.73;;;10.40;99.90;;;;;;5055382;28;20029;-72
2024/02/18 00:11:16;;;;;;;32.22;19.98;;;10.50;99.90;;;;;;5055588;28;20388;-72
2024/02/18 00:13:42;;;;;;;25.40;20.20;;;10.50;99.90;;;;;;5055079;28;20045;-72
2024/02/18 00:16:08;;;;;;;27.05;20.00;;;10.60;99.90;;;;;;5055099;28;20091;-72
2024/02/18 00:18:34;;;;;;;28.88;19.85;;;10.60;99.90;;;;;;5054990;28;20563;-72
2024/02/18 00:20:59;;;;;;;25.15;18.20;;;10.60;99.90;;;;;;5055127;28;20040;-72
2024/02/18 00:23:25;;;;;;;31.75;19.80;;;10.60;99.90;;;;;;5037400;28;20032;-71
2024/02/18 00:25:51;;;;;;;31.60;18.10;;;10.60;99.90;;;;;;5055088;28;20033;-72
2024/02/18 00:28:17;;;;;;;25.52;18.58;;;10.70;99.90;;;;;;5055106;28;20025;-72
2024/02/18 00:30:42;;;;;;;23.08;16.88;;;10.70;99.90;;;;;;5055012;28;20033;-72
2024/02/18 00:33:08;;;;;;;23.33;16.30;;;10.70;99.90;;;;;;5054643;28;20053;-72
2024/02/18 00:35:34;;;;;;;24.00;16.38;;;10.70;99.90;;;;;;5054906;28;20037;-73
2024/02/18 00:37:59;;;;;;;25.13;16.70;;;10.80;99.90;;;;;;5054825;28;20071;-72
2024/02/18 00:40:25;;;;;;;21.75;14.85;;;10.90;99.90;;;;;;5054608;28;20070;-72
2024/02/18 00:42:51;;;;;;;19.08;13.55;;;10.90;99.90;;;;;;5054621;28;20028;-72
2024/02/18 00:45:16;;;;;;;18.92;13.40;;;11.00;99.90;;;;;;5054498;28;20182;-72
2024/02/18 00:47:42;;;;;;;18.33;14.02;;;11.00;99.90;;;;;;5054579;28;20020;-72
2024/02/18 00:50:08;;;;;;;20.23;14.32;;;11.00;99.90;;;;;;5054502;28;20036;-72
2024/02/18 00:52:34;;;;;;;20.85;13.82;;;11.10;99.90;;;;;;5054626;28;20044;-72
2024/02/18 00:55:00;;;;;;;19.20;13.82;;;11.10;99.90;;;;;;5054327;28;20061;-72
2024/02/18 00:57:25;;;;;;;17.63;13.18;;;11.10;99.90;;;;;;5054755;28;20087;-72
2024/02/18 00:59:51;;;;;;;23.92;14.13;;;11.10;99.90;;;;;;5054339;28;20063;-72
2024/02/18 01:02:17;;;;;;;19.60;14.27;;;11.20;99.90;;;;;;5054565;28;20082;-72
2024/02/18 01:04:43;;;;;;;20.73;14.02;;;11.20;99.90;;;;;;5054453;28;20053;-72
2024/02/18 01:07:11;;;;;;;21.10;13.23;;;11.20;99.90;;;;;;5053903;28;20049;-72
2024/02/18 01:09:37;;;;;;;21.80;14.20;;;11.20;99.90;;;;;;5053864;28;20028;-72
2024/02/18 01:12:03;;;;;;;20.27;14.15;;;11.20;99.90;;;;;;5054539;28;20025;-72
2024/02/18 01:14:29;;;;;;;17.55;12.43;;;11.20;99.90;;;;;;5054532;28;20049;-72
2024/02/18 01:16:57;;;;;;;18.98;12.77;;;11.30;99.90;;;;;;5054171;28;20095;-72
2024/02/18 01:19:23;;;;;;;17.83;13.18;;;11.30;99.90;;;;;;5053895;28;20500;-72
2024/02/18 01:21:48;;;;;;;17.35;12.73;;;11.40;99.90;;;;;;5054329;28;20029;-72
2024/02/18 01:24:14;;;;;;;17.02;12.93;;;11.40;99.90;;;;;;5054216;28;20082;-72
2024/02/18 01:26:40;;;;;;;19.23;12.63;;;11.40;99.90;;;;;;5054156;28;20020;-72
2024/02/18 01:29:06;;;;;;;19.20;12.82;;;11.50;99.90;;;;;;5054141;28;20033;-72
2024/02/18 01:31:32;;;;;;;16.80;12.13;;;11.50;99.90;;;;;;5053520;28;20029;-72
2024/02/18 01:33:58;;;;;;;17.45;11.52;;;11.50;99.90;;;;;;5054060;28;20504;-72
2024/02/18 01:36:24;;;;;;;17.52;11.07;;;11.60;99.90;;;;;;5053954;28;20110;-72
2024/02/18 01:38:49;;;;;;;16.88;11.77;;;11.60;99.90;;;;;;5053600;28;20036;-72
2024/02/18 01:41:15;;;;;;;14.52;10.30;;;11.60;99.90;;;;;;5053527;28;20028;-71
2024/02/18 01:43:41;;;;;;;14.15;10.50;;;11.70;99.90;;;;;;5053763;28;20028;-72
2024/02/18 01:46:08;;;;;;;17.90;11.23;;;11.70;99.90;;;;;;5052827;28;20053;-72
2024/02/18 01:48:34;;;;;;;16.63;11.02;;;11.70;99.90;;;;;;5053444;28;20017;-72
2024/02/18 01:51:01;;;;;;;15.40;11.02;;;11.70;99.90;;;;;;5053472;28;20087;-72
2024/02/18 01:53:27;;;;;;;13.57;11.07;;;11.70;99.90;;;;;;5053395;28;20531;-72
2024/02/18 01:55:54;;;;;;;17.60;11.13;;;11.70;99.90;;;;;;5053444;28;20515;-73
2024/02/18 01:58:20;;;;;;;15.30;10.98;;;11.70;99.90;;;;;;5051608;28;20040;-72
2024/02/18 02:00:48;;;;;;;18.38;11.75;;;11.80;99.90;;;;;;5050626;28;20056;-72
2024/02/18 02:03:14;;;;;;;12.10;9.30;;;11.80;99.90;;;;;;5050764;28;20029;-72
2024/02/18 02:05:41;;;;;;;13.20;9.02;;;11.80;99.90;;;;;;5052236;28;20546;-73
2024/02/18 02:08:07;;;;;;;12.35;9.27;;;11.80;99.90;;;;;;5053081;28;20021;-72
2024/02/18 02:10:33;;;;;;;12.45;9.30;;;11.80;99.90;;;;;;5052983;28;20116;-72
2024/02/18 02:12:59;;;;;;;12.85;8.65;;;11.80;99.90;;;;;;5052889;28;20059;-72
2024/02/18 02:15:25;;;;;;;11.55;8.45;;;11.90;99.90;;;;;;5052741;28;20041;-72
2024/02/18 02:17:50;;;;;;;12.00;8.35;;;11.90;99.90;;;;;;5053012;28;20033;-72
2024/02/18 02:20:16;;;;;;;14.95;9.23;;;11.90;99.90;;;;;;5053064;28;20032;-73
2024/02/18 02:22:42;;;;;;;12.75;8.80;;;11.90;99.90;;;;;;5034924;28;20029;-72
2024/02/18 02:25:11;;;;;;;14.30;9.18;;;11.90;99.90;;;;;;5053102;28;20029;-72
2024/02/18 02:27:40;;;;;;;14.18;10.05;;;11.90;99.90;;;;;;5052815;28;20550;-73
2024/02/18 02:30:07;;;;;;;14.85;10.48;;;11.90;99.90;;;;;;5053011;28;20029;-72
2024/02/18 02:32:35;;;;;;;14.15;9.88;;;11.90;99.90;;;;;;5052865;28;20040;-72
2024/02/18 02:35:04;;;;;;;12.98;9.23;;;11.90;99.90;;;;;;5052667;28;20035;-72
2024/02/18 02:37:30;;;;;;;14.02;8.45;;;11.90;99.90;;;;;;5052575;28;20385;-72
2024/02/18 02:39:56;;;;;;;12.43;8.70;;;11.90;99.90;;;;;;5052572;28;20501;-73
2024/02/18 02:42:22;;;;;;;11.70;8.57;;;11.90;99.90;;;;;;5052860;28;20032;-72
2024/02/18 02:44:48;;;;;;;13.07;9.00;;;11.90;99.90;;;;;;5052562;28;20467;-72
2024/02/18 02:47:13;;;;;;;12.32;8.85;;;11.90;99.90;;;;;;5052915;28;20033;-72
2024/02/18 02:49:39;;;;;;;9.77;7.50;;;11.90;99.90;;;;;;5052509;28;20028;-72
2024/02/18 02:52:05;;;;;;;12.02;7.38;;;11.90;99.90;;;;;;5052195;28;20091;-71
2024/02/18 02:54:31;;;;;;;11.25;7.57;;;12.00;99.90;;;;;;5034375;28;20039;-72
2024/02/18 02:56:57;;;;;;;8.75;6.78;;;12.00;99.90;;;;;;5052367;28;20036;-72
2024/02/18 02:59:23;;;;;;;9.82;6.93;;;12.00;99.90;;;;;;5052510;28;20059;-72
2024/02/18 03:01:49;;;;;;;10.27;7.20;;;12.00;99.90;;;;;;5052356;28;20498;-72
2024/02/18 03:04:14;;;;;;;10.23;6.90;;;12.10;99.90;;;;;;5052424;28;20025;-72
2024/02/18 03:06:40;;;;;;;8.82;6.00;;;12.10;99.90;;;;;;5052338;28;20070;-72
2024/02/18 03:09:07;;;;;;;9.00;6.68;;;12.10;99.90;;;;;;5052364;28;20067;-72
2024/02/18 03:11:33;;;;;;;9.00;6.50;;;12.10;99.90;;;;;;5052477;28;20024;-72
2024/02/18 03:13:58;;;;;;;9.43;6.63;;;12.10;99.90;;;;;;5052021;28;20496;-72
2024/02/18 03:16:24;;;;;;;9.23;6.38;;;12.10;99.90;;;;;;5052047;28;20041;-72
2024/02/18 03:18:50;;;;;;;10.95;6.00;;;12.10;99.90;;;;;;5052198;28;20411;-72
2024/02/18 03:21:15;;;;;;;9.85;6.50;;;12.10;99.90;;;;;;5052109;28;20036;-72
2024/02/18 03:23:42;;;;;;;11.45;6.10;;;12.20;99.90;;;;;;5052034;28;20096;-72
2024/02/18 03:26:08;;;;;;;7.72;5.93;;;12.10;99.90;;;;;;5052138;28;20021;-72
2024/02/18 03:28:34;;;;;;;7.30;5.50;;;12.20;99.90;;;;;;5052286;28;20079;-72
2024/02/18 03:31:00;;;;;;;9.15;6.30;;;12.10;99.90;;;;;;5052417;28;20032;-72
2024/02/18 03:33:26;;;;;;;8.25;5.68;;;12.20;99.90;;;;;;5052179;28;20108;-72
2024/02/18 03:35:51;;;;;;;7.30;5.32;;;12.10;99.90;;;;;;5052016;28;20037;-72
2024/02/18 03:38:17;;;;;;;12.75;5.82;;;12.10;99.90;;;;;;5052118;28;20094;-72
2024/02/18 03:40:43;;;;;;;10.23;6.47;;;12.20;99.90;;;;;;5051711;28;20477;-72
2024/02/18 03:43:09;;;;;;;10.73;6.18;;;12.20;99.90;;;;;;5052186;28;20043;-72
2024/02/18 03:45:35;;;;;;;8.88;5.40;;;12.20;99.90;;;;;;5052117;28;20029;-72
2024/02/18 03:48:01;;;;;;;8.20;5.53;;;12.20;99.90;;;;;;5051961;28;20029;-72
2024/02/18 03:50:27;;;;;;;8.55;5.60;;;12.20;99.90;;;;;;5052016;28;20025;-72
2024/02/18 03:52:52;;;;;;;6.65;5.30;;;12.20;99.90;;;;;;5051685;28;20028;-72
2024/02/18 03:55:18;;;;;;;12.38;6.20;;;12.20;99.90;;;;;;5051836;28;20051;-72
2024/02/18 03:57:45;;;;;;;8.77;5.40;;;12.20;99.90;;;;;;5051921;28;20034;-72
2024/02/18 04:00:11;;;;;;;9.77;6.03;;;12.20;99.90;;;;;;5051863;28;20023;-72
2024/02/18 04:02:41;;;;;;;8.88;5.60;;;12.20;99.90;;;;;;5051339;28;20389;-72
2024/02/18 04:05:10;;;;;;;11.50;5.60;;;12.20;99.90;;;;;;5051536;28;20071;-72
2024/02/18 04:07:36;;;;;;;10.38;6.10;;;12.20;99.90;;;;;;5051845;28;20496;-72
2024/02/18 04:10:03;;;;;;;12.13;9.30;;;12.20;99.90;;;;;;5055010;28;20021;-72
2024/02/18 04:12:31;;;;;;;10.57;7.55;;;12.20;99.90;;;;;;5055120;28;20029;-72
2024/02/18 04:14:56;;;;;;;9.15;6.75;;;12.20;99.90;;;;;;5055266;28;20031;-72
2024/02/18 04:17:24;;;;;;;7.72;6.20;;;12.30;99.90;;;;;;5055587;28;20033;-72
2024/02/18 04:19:50;;;;;;;7.82;5.68;;;12.20;99.90;;;;;;5055520;28;20029;-72
2024/02/18 04:22:16;;;;;;;8.68;5.90;;;12.30;99.90;;;;;;5055160;28;20082;-72
2024/02/18 04:24:42;;;;;;;10.15;5.57;;;12.20;99.90;;;;;;5055409;28;20033;-72
2024/02/18 04:27:09;;;;;;;8.15;5.45;;;12.20;99.90;;;;;;5055149;28;20524;-72
2024/02/18 04:29:36;;;;;;;8.80;5.78;;;12.30;99.90;;;;;;5055204;28;20029;-72
2024/02/18 04:32:02;;;;;;;8.07;5.50;;;12.20;99.90;;;;;;5055160;28;20485;-72
2024/02/18 04:34:28;;;;;;;8.50;5.82;;;12.30;99.90;;;;;;5055057;28;20021;-72
2024/02/18 04:36:54;;;;;;;8.98;6.18;;;12.30;99.90;;;;;;5054718;28;20032;-71
2024/02/18 04:39:20;;;;;;;9.73;5.90;;;12.30;99.90;;;;;;5054879;28;20032;-72
2024/02/18 04:41:46;;;;;;;9.23;6.25;;;12.20;99.90;;;;;;5054923;28;20037;-72
2024/02/18 04:44:12;;;;;;;11.13;6.13;;;12.30;99.90;;;;;;5053903;28;20021;-71
2024/02/18 04:46:37;;;;;;;7.43;5.47;;;12.30;99.90;;;;;;5054576;28;20037;-72
2024/02/18 04:49:04;;;;;;;11.13;5.72;;;12.20;99.90;;;;;;5054786;28;20021;-72
2024/02/18 04:51:31;;;;;;;8.57;6.45;;;12.30;99.90;;;;;;5054016;28;20477;-72
2024/02/18 04:53:57;;;;;;;8.30;6.10;;;12.20;99.90;;;;;;5054736;28;20385;-72
2024/02/18 04:56:23;;;;;;;10.93;6.68;;;12.20;99.90;;;;;;5067312;28;20043;-72
2024/02/18 04:58:48;;;;;;;10.48;6.20;;;12.30;99.90;;;;;;5074554;28;20028;-72
2024/02/18 05:01:14;;;;;;;7.57;5.53;;;12.30;99.90;;;;;;5074538;28;20033;-72
2024/02/18 05:03:42;;;;;;;7.20;5.35;;;12.20;99.90;;;;;;5074454;28;20025;-72
2024/02/18 05:06:08;;;;;;;9.25;5.55;;;12.20;99.90;;;;;;5074551;28;20036;-72
2024/02/18 05:08:35;;;;;;;10.20;5.57;;;12.30;99.90;;;;;;5074292;28;20384;-72
2024/02/18 05:11:01;;;;;;;7.43;5.68;;;12.20;99.90;;;;;;5074536;28;20422;-72
2024/02/18 05:13:27;;;;;;;8.52;5.43;;;12.20;99.90;;;;;;5074184;28;20041;-72
2024/02/18 05:15:53;;;;;;;8.95;4.97;;;12.20;99.90;;;;;;5074047;28;20389;-72
2024/02/18 05:18:19;;;;;;;8.95;5.22;;;12.20;99.90;;;;;;5074216;28;20064;-73
2024/02/18 05:20:45;;;;;;;9.23;5.35;;;12.20;99.90;;;;;;5074069;28;20094;-72
2024/02/18 05:23:14;;;;;;;7.78;5.35;;;12.20;99.90;;;;;;5074076;28;20020;-72
2024/02/18 05:25:40;;;;;;;9.60;5.22;;;12.20;99.90;;;;;;5074026;28;20031;-73
2024/02/18 05:28:06;;;;;;;8.73;5.97;;;12.20;99.90;;;;;;5073793;28;20457;-72
2024/02/18 05:30:32;;;;;;;9.30;5.32;;;12.20;99.90;;;;;;5074075;28;20481;-72
2024/02/18 05:32:58;;;;;;;6.47;4.63;;;12.20;99.90;;;;;;5073926;28;20059;-73
2024/02/18 05:35:24;;;;;;;8.13;5.25;;;12.20;99.90;;;;;;5073664;28;20037;-72
2024/02/18 05:37:51;;;;;;;7.35;5.22;;;12.20;99.90;;;;;;5073864;28;20052;-72
2024/02/18 05:40:16;;;;;;;9.27;4.93;;;12.20;99.90;;;;;;5073863;28;20029;-72
2024/02/18 05:42:42;;;;;;;6.18;4.95;;;12.20;99.90;;;;;;5073746;28;20443;-72
2024/02/18 05:45:08;;;;;;;9.48;4.68;;;12.20;99.90;;;;;;5069142;28;20033;-72
2024/02/18 05:47:34;;;;;;;7.82;5.15;;;12.20;99.90;;;;;;5053627;28;20032;-72
2024/02/18 05:50:00;;;;;;;9.13;4.65;;;12.20;99.90;;;;;;5053687;28;20052;-72
2024/02/18 05:52:26;;;;;;;6.78;4.75;;;12.20;99.90;;;;;;5053353;28;20032;-72
2024/02/18 05:54:51;;;;;;;7.30;4.75;;;12.20;99.90;;;;;;5053144;28;20040;-71
2024/02/18 05:57:17;;;;;;;8.90;4.20;;;12.20;99.90;;;;;;5053408;28;20392;-71
2024/02/18 05:59:44;;;;;;;5.97;4.60;;;12.20;99.90;;;;;;5053682;28;20028;-72
2024/02/18 06:02:09;;;;;;;6.15;4.95;;;12.20;99.90;;;;;;5053512;28;20495;-72
2024/02/18 06:04:35;;;;;;;8.82;4.80;;;12.20;99.90;;;;;;5053259;28;20100;-72
2024/02/18 06:07:01;;;;;;;7.10;4.53;;;12.20;99.90;;;;;;5051263;28;20043;-72
2024/02/18 06:09:27;;;;;;;7.80;4.63;;;12.20;99.90;;;;;;5053181;28;20024;-72
2024/02/18 06:11:53;;;;;;;7.88;4.63;;;12.20;99.90;;;;;;5053297;28;20021;-72
2024/02/18 06:14:19;;;;;;;6.15;4.50;;;12.20;99.90;;;;;;5053054;28;20048;-72
2024/02/18 06:16:45;;;;;;;9.10;4.90;;;12.10;99.90;;;;;;5053050;28;20037;-72
2024/02/18 06:19:12;;;;;;;4.95;4.15;;;12.10;99.90;;;;;;5053047;28;20068;-71
2024/02/18 06:21:38;;;;;;;5.28;4.13;;;12.20;99.90;;;;;;5053133;28;20029;-72
2024/02/18 06:24:04;;;;;;;8.90;5.05;;;12.10;99.90;;;;;;5050818;28;20029;-72
2024/02/18 06:26:30;;;;;;;7.70;4.38;;;12.20;99.90;;;;;;5073130;28;20051;-72
2024/02/18 06:28:56;;;;;;;7.10;4.38;;;12.20;99.90;;;;;;5072778;28;20040;-71
2024/02/18 06:31:22;;;;;;;5.88;4.55;;;12.10;99.90;;;;;;5072633;28;20028;-71
2024/02/18 06:33:48;;;;;;;6.38;4.65;;;12.20;99.90;;;;;;5072921;28;20028;-72
2024/02/18 06:36:15;;;;;;;8.00;4.80;;;12.20;99.90;;;;;;5073154;28;20043;-72
2024/02/18 06:38:44;;;;;;;7.18;5.53;;;12.20;99.90;;;;;;5072746;28;20066;-72
2024/02/18 06:41:10;;;;;;;6.60;5.00;;;12.20;99.90;;;;;;5072848;28;20083;-72
2024/02/18 06:43:36;;;;;;;6.30;4.72;;;12.20;99.90;;;;;;5069356;28;20024;-72
2024/02/18 06:46:03;;;;;;;7.85;5.05;;;12.20;99.90;;;;;;5052640;28;20025;-72
2024/02/18 06:48:30;;;;;;;7.38;4.30;;;12.20;99.90;;;;;;5052567;28;20442;-72
2024/02/18 06:50:56;;;;;;;7.07;3.95;;;12.20;99.90;;;;;;5052456;28;20029;-72
2024/02/18 06:53:21;;;;;;;5.95;4.30;;;12.30;99.90;;;;;;5052228;28;20515;-72
2024/02/18 06:55:47;;;;;;;7.65;4.57;;;12.20;99.90;;;;;;5052002;28;20053;-72
2024/02/18 06:58:15;;;;;;;7.05;4.20;;;12.30;99.90;;;;;;5052768;28;20100;-72
2024/02/18 07:00:41;;;;;;;6.55;4.22;;;12.20;99.90;;;;;;5052456;28;20021;-73
2024/02/18 07:03:07;;;;;;;6.60;4.00;;;12.20;99.90;;;;;;5052410;28;20021;-72
2024/02/18 07:05:33;;;;;;;8.23;5.13;;;12.30;99.90;;;;;;5052315;28;20025;-72
2024/02/18 07:07:59;;;;;;;6.00;4.45;;;12.30;99.90;;;;;;5050087;28;20025;-72
2024/02/18 07:10:27;;;;;;;5.68;4.10;;;12.30;99.90;;;;;;5049545;28;20032;-72
2024/02/18 07:12:52;;;;;;;6.38;4.10;;;12.30;99.90;;;;;;5048997;28;20155;-72
2024/02/18 07:15:18;;;;;;;6.80;5.05;;;12.30;99.90;;;;;;5049353;28;20549;-72
2024/02/18 07:17:44;;;;;;;7.13;4.05;;;12.30;99.90;;;;;;5049659;28;20028;-72
2024/02/18 07:20:10;;;;;;;6.13;4.15;;;12.30;99.90;;;;;;5052022;28;20047;-72
2024/02/18 07:22:35;;;;;;;5.32;3.97;;;12.30;99.90;;;;;;5052016;28;20126;-72
2024/02/18 07:25:02;;;;;;;7.60;4.95;;;12.30;99.90;;;;;;5052548;28;20025;-72
2024/02/18 07:27:28;;;;;;;7.22;4.30;;;12.30;99.90;;;;;;5034347;28;20135;-72
2024/02/18 07:29:54;;;;;;;5.30;4.32;;;12.40;99.90;;;;;;5051994;28;20489;-71
2024/02/18 07:32:20;;;;;;;9.98;4.60;;;12.40;99.90;;;;;;5051989;28;20017;-72
2024/02/18 07:34:46;;;;;;;6.95;4.72;;;12.40;99.90;;;;;;5052223;28;20021;-72
2024/02/18 07:37:11;;;;;;;5.90;4.78;;;12.40;99.90;;;;;;5051307;28;20041;-72
2024/02/18 07:39:37;;;;;;;6.50;4.47;;;12.40;99.90;;;;;;5051533;28;20024;-72
2024/02/18 07:42:03;;;;;;;7.10;5.20;;;12.40;99.90;;;;;;5052170;28;20048;-71
2024/02/18 07:44:29;;;;;;;6.00;4.72;;;12.40;99.90;;;;;;5054443;28;20032;-71
2024/02/18 07:46:57;;;;;;;6.65;4.90;;;12.40;99.90;;;;;;5056002;28;20025;-71
2024/02/18 07:49:24;;;;;;;6.22;4.97;;;12.40;99.90;;;;;;5055876;28;20358;-72
2024/02/18 07:51:49;;;;;;;6.30;4.70;;;12.50;99.90;;;;;;5055794;28;20027;-72
2024/02/18 07:54:17;;;;;;;7.05;5.13;;;12.50;99.90;;;;;;5055902;28;20491;-71
2024/02/18 07:56:46;;;;;;;7.85;5.43;;;12.40;99.90;;;;;;5055532;28;20075;-72
2024/02/18 07:59:21;;;;;;;8.45;5.35;;;12.50;99.90;;;;;;5055886;28;20082;-72
2024/02/18 08:01:48;;;;;;;9.70;6.18;;;12.50;99.90;;;;;;5055545;28;20530;-72
2024/02/18 08:04:13;;;;;;;9.13;5.60;;;12.50;99.90;;;;;;5054909;28;20048;-72
2024/02/18 08:06:40;;;;;;;7.57;5.25;;;12.50;99.90;;;;;;5055205;28;20060;-72
2024/02/18 08:09:09;;;;;;;7.57;5.05;;;12.50;99.90;;;;;;5055523;28;20032;-72
2024/02/18 08:11:35;;;;;;;7.53;4.97;;;12.60;99.90;;;;;;5054283;28;20025;-71
2024/02/18 08:14:01;;;;;;;9.73;5.43;;;12.60;99.90;;;;;;5059574;28;20044;-71
2024/02/18 08:16:28;;;;;;;8.52;5.28;;;12.70;99.90;;;;;;5073237;28;20140;-71
2024/02/18 08:18:54;;;;;;;8.77;4.70;;;12.60;99.90;;;;;;5075162;28;20500;-72
2024/02/18 08:21:21;;;;;;;6.43;4.93;;;12.70;99.90;;;;;;5070854;28;20469;-72
2024/02/18 08:23:46;;;;;;;7.63;5.07;;;12.70;99.90;;;;;;5055298;28;20370;-72
2024/02/18 08:26:32;;;;;;;8.10;4.95;;;12.70;99.90;;;;;;5054838;28;20027;-71
2024/02/18 08:28:58;;;;;;;8.07;5.63;;;12.70;99.90;;;;;;5054706;28;20564;-72
2024/02/18 08:31:24;;;;;;;9.82;5.35;;;12.70;99.90;;;;;;5054908;28;20112;-72
2024/02/18 08:33:49;;;;;;;6.60;4.90;;;12.70;99.90;;;;;;5054802;28;20057;-71
2024/02/18 08:36:15;;;;;;;8.30;4.85;;;12.70;99.90;;;;;;5054805;28;20044;-71
2024/02/18 08:38:42;;;;;;;8.10;5.47;;;12.70;99.90;;;;;;5054631;28;20033;-70
2024/02/18 08:41:08;;;;;;;10.15;5.78;;;12.70;99.90;;;;;;5054656;28;20021;-71
2024/02/18 08:43:38;;;;;;;8.10;5.20;;;12.70;99.90;;;;;;5054814;28;20328;-72
2024/02/18 08:46:04;;;;;;;8.00;5.20;;;12.70;99.90;;;;;;5054848;28;20028;-71
2024/02/18 08:48:29;;;;;;;9.43;5.63;;;12.70;99.90;;;;;;5067737;28;20524;-69
2024/02/18 08:50:55;;;;;;;9.13;5.57;;;12.70;99.90;;;;;;5063458;28;20029;-73
2024/02/18 08:53:21;;;;;;;9.13;5.85;;;12.70;99.90;;;;;;5051474;28;20389;-76
2024/02/18 08:55:47;;;;;;;9.52;5.80;;;12.70;99.90;;;;;;5051424;28;20112;-70
2024/02/18 08:58:13;;;;;;;9.88;5.55;;;12.70;99.90;;;;;;5053886;28;20432;-74
2024/02/18 09:00:39;;;;;;;9.98;5.90;;;12.70;99.90;;;;;;5054551;28;20025;-73
2024/02/18 09:03:05;;;;;;;7.68;6.78;;;12.70;99.90;;;;;;5054290;28;20056;-73
2024/02/18 09:05:30;;;;;;;8.73;6.38;;;12.70;99.90;;;;;;5054498;28;20052;-74
2024/02/18 09:07:56;;;;;;;8.75;5.55;;;12.70;99.90;;;;;;5054606;28;20052;-73
2024/02/18 09:10:22;;;;;;;7.60;6.05;;;12.70;99.90;;;;;;5036460;28;20063;-73
2024/02/18 09:12:53;;;;;;;10.70;6.03;;;12.70;99.90;;;;;;5049264;23;20076;-72
2024/02/18 09:18:59;;;;;;;7.55;5.85;;;12.70;99.90;;;;;;5054826;28;20128;-70
2024/02/18 09:24:52;;;;;;;9.13;5.97;;;12.80;99.90;;;;;;5030660;28;20040;-71
2024/02/18 09:27:18;;;;;;;8.93;6.10;;;12.90;99.90;;;;;;5054424;28;20455;-71
2024/02/18 09:29:44;;;;;;;8.25;5.90;;;12.90;99.90;;;;;;5054147;28;20096;-72
2024/02/18 09:32:10;;;;;;;7.32;5.90;;;12.90;99.90;;;;;;5054094;28;20029;-72
2024/02/18 09:34:37;;;;;;;8.82;6.50;;;12.90;99.90;;;;;;5053959;28;20037;-72
2024/02/18 09:37:03;;;;;;;8.90;6.57;;;12.90;99.90;;;;;;5053815;28;20095;-71
2024/02/18 09:39:29;;;;;;;7.95;5.68;;;12.90;99.90;;;;;;5054213;28;20096;-71
2024/02/18 09:42:00;;;;;;;8.20;5.30;;;13.00;99.90;;;;;;5036081;28;20067;-71
2024/02/18 09:44:27;;;;;;;8.27;5.43;;;13.00;99.90;;;;;;5035428;28;20409;-71
2024/02/18 09:46:58;;;;;;;6.68;4.90;;;13.00;99.90;;;;;;5053699;28;20032;-72
2024/02/18 09:49:26;;;;;;;5.40;4.55;;;13.10;99.90;;;;;;5053344;28;20500;-72
2024/02/18 09:51:56;;;;;;;7.57;5.10;;;13.10;99.90;;;;;;5053397;28;20036;-72
2024/02/18 09:54:24;;;;;;;6.95;5.10;;;13.10;99.90;;;;;;5053705;28;20021;-71
2024/02/18 09:56:50;;;;;;;6.97;5.30;;;13.10;99.90;;;;;;5053564;28;20447;-71
2024/02/18 09:59:17;;;;;;;7.20;5.10;;;13.10;99.90;;;;;;5053462;28;20115;-72
2024/02/18 10:01:49;;;;;;;6.07;5.13;;;13.10;99.90;;;;;;5053674;28;20108;-71
2024/02/18 10:04:15;;;;;;;8.63;5.80;;;13.00;99.90;;;;;;5053049;28;20531;-72
2024/02/18 10:06:43;;;;;;;8.10;5.40;;;13.00;99.90;;;;;;5030271;28;20262;-73
2024/02/18 10:09:09;;;;;;;6.60;5.10;;;13.00;99.90;;;;;;5050454;28;20100;-73
2024/02/18 10:11:36;;;;;;;7.65;5.57;;;13.00;99.90;;;;;;5051676;28;20032;-74
2024/02/18 10:14:04;;;;;;;6.93;5.50;;;13.00;99.90;;;;;;5051976;28;20041;-74
2024/02/18 10:16:29;;;;;;;8.25;5.28;;;13.00;99.90;;;;;;5034471;28;20098;-74
2024/02/18 10:18:55;;;;;;;10.43;4.95;;;13.10;99.90;;;;;;5052239;28;20025;-74
2024/02/18 10:21:21;;;;;;;8.82;5.43;;;13.10;99.90;;;;;;5051679;28;20152;-74
2024/02/18 10:23:49;;;;;;;8.05;5.25;;;13.10;99.90;;;;;;5052254;28;20055;-74
2024/02/18 10:26:15;;;;;;;6.30;4.22;;;13.10;99.90;;;;;;5052410;28;20031;-71
2024/02/18 10:28:41;;;;;;;6.13;4.65;;;13.10;99.90;;;;;;5052670;28;20029;-71
2024/02/18 10:31:07;;;;;;;8.68;4.50;;;13.20;99.90;;;;;;5053394;28;20048;-72
2024/02/18 10:33:37;;;;;;;5.85;4.18;;;13.10;99.90;;;;;;5053081;28;20072;-72
2024/02/18 10:36:15;;;;;;;4.68;3.83;;;13.10;99.90;;;;;;5032970;28;20037;-72
2024/02/18 10:38:50;;;;;;;5.10;3.83;;;13.20;99.90;;;;;;5032825;28;20033;-72
2024/02/18 10:42:05;;;;;;;7.68;4.50;;;13.20;99.90;;;;;;5052673;28;20413;-72
2024/02/18 10:45:12;;;;;;;6.28;4.20;;;13.20;99.90;;;;;;5053143;28;20107;-72
2024/02/18 10:58:43;;;;;;;5.63;4.05;;;13.30;99.90;;;;;;4971953;28;20053;-72
2024/02/18 11:05:03;;;;;;;5.85;4.18;;;13.30;99.90;;;;;;4971865;28;20402;-72
2024/02/18 11:07:30;;;;;;;5.07;3.72;;;13.30;99.90;;;;;;4971638;28;20392;-71
2024/02/18 11:09:57;;;;;;;4.68;3.55;;;13.30;99.90;;;;;;4971881;28;20469;-72
2024/02/18 11:12:24;;;;;;;5.43;3.55;;;13.30;99.90;;;;;;4955362;28;20372;-72
2024/02/18 11:14:52;;;;;;;5.35;4.00;;;13.30;99.90;;;;;;5022282;28;20128;-72
2024/02/18 11:17:18;;;;;;;5.63;3.53;;;13.30;99.90;;;;;;5033564;28;20400;-72
2024/02/18 11:19:45;;;;;;;5.78;3.25;;;13.40;99.90;;;;;;5021706;28;20388;-71
2024/02/18 11:22:11;;;;;;;5.93;3.45;;;13.40;99.90;;;;;;5039157;28;20463;-71
2024/02/18 11:24:37;;;;;;;9.80;3.30;;;13.50;99.90;;;;;;5038986;28;20047;-72
2024/02/18 11:27:03;;;;;;;5.60;3.45;;;13.50;99.90;;;;;;5038898;28;20013;-71
2024/02/18 11:29:29;;;;;;;5.60;3.58;;;13.60;99.90;;;;;;5038674;28;20358;-72
2024/02/18 11:31:55;;;;;;;5.70;3.83;;;13.60;99.90;;;;;;5038920;28;20156;-71
2024/02/18 11:34:21;;;;;;;6.20;4.07;;;13.60;99.90;;;;;;5024668;28;20082;-72
2024/02/18 11:36:47;;;;;;;8.63;4.38;;;13.70;99.90;;;;;;5058744;28;20116;-71
2024/02/18 11:39:13;;;;;;;5.72;3.70;;;13.70;99.90;;;;;;5058638;28;20051;-71
2024/02/18 11:41:39;;;;;;;5.05;3.60;;;13.80;99.90;;;;;;5040338;28;20029;-72
2024/02/18 11:44:10;;;;;;;3.30;2.58;;;13.80;99.90;;;;;;5057909;28;20055;-72
2024/02/18 11:46:42;;;;;;;4.88;3.15;;;13.80;99.90;;;;;;5057402;28;20055;-72
2024/02/18 11:49:08;;;;;;;5.07;3.17;;;13.90;99.90;;;;;;5057662;28;20491;-72
2024/02/18 11:51:34;;;;;;;4.68;3.38;;;13.90;99.90;;;;;;5057684;28;20029;-71
2024/02/18 11:54:00;;;;;;;4.38;3.03;;;13.80;99.90;;;;;;5058222;28;20029;-72
2024/02/18 11:56:26;;;;;;;4.18;2.85;;;13.90;99.90;;;;;;5058494;28;20071;-72
2024/02/18 11:58:54;;;;;;;3.45;2.92;;;13.80;99.10;;;;;;5056206;28;20029;-72
2024/02/18 12:01:21;;;;;;;4.00;2.58;;;13.80;99.10;;;;;;5055916;28;20107;-72
2024/02/18 12:03:47;;;;;;;3.78;2.78;;;13.80;99.10;;;;;;5057676;28;20354;-72
2024/02/18 12:06:14;;;;;;;4.82;2.50;;;13.80;98.90;;;;;;5058993;28;20025;-72
2024/02/18 12:08:40;;;;;;;5.07;2.80;;;13.80;98.70;;;;;;5058603;28;20025;-72
2024/02/18 12:11:06;;;;;;;7.60;3.17;;;13.80;99.10;;;;;;5058695;28;20028;-72
2024/02/18 12:13:34;;;;;;;6.32;3.25;;;13.80;99.30;;;;;;5059281;28;20061;-72
2024/02/18 12:16:03;;;;;;;4.78;3.17;;;13.80;99.30;;;;;;5059350;28;20393;-72
2024/02/18 12:18:29;;;;;;;7.10;3.33;;;13.80;99.40;;;;;;5059262;28;20500;-72
2024/02/18 12:20:55;;;;;;;5.05;2.90;;;13.80;99.60;;;;;;5059041;28;20492;-72
2024/02/18 12:23:39;;;;;;;4.03;2.67;;;13.80;99.70;;;;;;5057908;28;20025;-71
2024/02/18 12:26:37;;;;;;;5.88;3.40;;;13.80;99.10;;;;;;5056535;28;20388;-71
2024/02/18 12:29:08;;;;;;;4.38;2.63;;;13.80;98.90;;;;;;4993045;28;20100;-72
2024/02/18 12:31:43;;;;;;;3.75;2.72;;;13.90;98.50;;;;;;5053182;28;20434;-72
2024/02/18 12:37:56;;;;;;;3.55;2.40;;;14.00;97.70;;;;;;5023985;28;20036;-72
2024/02/18 12:40:27;;;;;;;3.70;2.75;;;14.00;97.40;;;;;;5054947;28;20024;-71
2024/02/18 12:43:04;;;;;;;4.55;2.88;;;14.00;96.90;;;;;;5055568;28;20401;-71
2024/02/18 12:45:59;;;;;;;4.00;2.70;;;14.00;97.00;;;;;;5055131;28;20029;-72
2024/02/18 12:48:56;;;;;;;4.55;2.80;;;14.10;96.50;;;;;;4992223;28;20031;-72
2024/02/18 12:51:23;;;;;;;5.28;3.28;;;14.10;96.40;;;;;;4976507;28;20057;-72
2024/02/18 12:53:49;;;;;;;3.97;2.67;;;14.10;96.60;;;;;;5043419;28;20444;-72
2024/02/18 12:56:16;;;;;;;6.15;3.00;;;14.10;97.00;;;;;;5055156;28;20044;-72
2024/02/18 12:58:42;;;;;;;3.28;2.40;;;14.20;97.30;;;;;;5037432;28;20467;-72
2024/02/18 13:01:08;;;;;;;4.20;3.10;;;14.40;96.40;;;;;;5054923;28;20115;-72
2024/02/18 13:03:35;;;;;;;5.93;2.90;;;14.50;96.30;;;;;;5054794;28;20376;-72
2024/02/18 13:06:01;;;;;;;5.55;3.80;;;14.60;96.20;;;;;;5054547;28;20025;-72
2024/02/18 13:08:27;;;;;;;4.07;2.75;;;14.70;95.60;;;;;;5054876;28;20389;-72